Terminal Aerodrome Forecast
Issued by NWS Tampa Bay Area, FL

Home | Current Version | Previous Version | Text Only | Print | Product List | Glossary On
Versions: 1 2 3 4 5 6 7 8 9 10 11 12
973
FTUS42 KTBW 261120
TAFSRQ
TAF
KSRQ 261120Z 2612/2712 09006KT P6SM SCT150
     FM261500 12008KT P6SM SCT040 SCT250
     FM261800 25008KT P6SM SCT040 SCT250
     FM262100 29008KT P6SM SCT050 SCT250
     FM270200 06005KT P6SM SCT050=

USA.gov is the U.S. government's official web portal to all federal, state and local government web resources and services.